Latest Weather Observations for Darwin Harbour

IDD60901

Issued at 7:11 pm CST Sunday 26 April 2015 (issued every 10 minutes, with the page automatically refreshed every 10 minutes)

About weather observations | Map of Darwin area stations | Latest observations for Darwin area | Other Formats
Station Details ID: 014072 Name: DARWIN NTC AWS Lat: -12.47 Lon: 130.85 Height: 0.0 m
Data from the previous 72 hours. | See also: Recent months for locations in Northern Territory
Date/Time
CST
Tmp

°C
App
Tmp
°C
Dew
Point
°C
Rel
Hum
%
Delta-T

°C
Wind Press
QNH
hPa
Press
MSL
hPa
Rain
since
9 am
mm
Dir
 
Spd
km/h
Gust
km/h
Spd
kts
Gust
kts
26/07:00pm 29.8 - - - - NE 6 7 3 4 1011.3 1011.2 -
26/06:30pm 29.9 - - - - ENE 7 15 4 8 1010.8 1010.7 -
26/06:00pm 30.6 - - - - NE 9 17 5 9 1010.3 1010.2 -
26/05:30pm 31.1 - - - - E 15 19 8 10 1010.0 1009.9 -
26/05:00pm 31.3 - - - - E 19 28 10 15 1009.8 1009.7 -
26/04:30pm 31.2 - - - - E 15 22 8 12 1009.7 1009.6 -
26/04:00pm 30.8 - - - - E 20 24 11 13 1009.7 1009.6 -
26/03:30pm 30.8 - - - - E 19 22 10 12 1009.9 1009.8 -
26/03:00pm 30.6 - - - - E 20 24 11 13 1010.0 1009.9 -
26/02:30pm 30.5 - - - - ENE 7 22 4 12 1010.4 1010.3 -
26/02:00pm 30.1 - - - - E 17 24 9 13 1010.6 1010.5 -
26/01:30pm 29.8 - - - - E 20 28 11 15 1010.8 1010.7 -
26/01:00pm 29.2 - - - - E 24 32 13 17 1011.3 1011.2 -
26/12:30pm 28.8 - - - - E 24 33 13 18 1011.8 1011.7 -
26/12:00pm 28.5 - - - - E 17 32 9 17 1012.4 1012.3 -
26/11:30am 27.9 - - - - E 26 33 14 18 1012.8 1012.7 -
26/11:00am 27.6 - - - - E 26 32 14 17 1013.1 1013.0 -
26/10:30am 27.3 - - - - E 20 30 11 16 1013.3 1013.2 -
26/10:00am 26.5 - - - - E 26 33 14 18 1013.2 1013.1 -
26/09:30am 25.8 - - - - E 26 32 14 17 1013.0 1012.9 -
26/09:00am 25.2 - - - - E 24 32 13 17 1012.5 1012.4 -
26/08:30am 25.1 - - - - E 24 37 13 20 1012.2 1012.1 -
26/08:00am 24.4 - - - - E 24 32 13 17 1012.1 1012.0 -
26/07:30am 24.5 - - - - E 24 33 13 18 1011.7 1011.6 -
26/07:00am 25.3 - - - - E 19 26 10 14 1011.2 1011.1 -
26/06:30am 25.4 - - - - ENE 13 24 7 13 1010.8 1010.7 -
26/06:00am 26.2 - - - - ESE 17 20 9 11 1010.6 1010.5 -
26/05:30am 26.7 - - - - E 15 20 8 11 1010.4 1010.3 -
26/05:00am 26.7 - - - - E 11 17 6 9 1010.4 1010.3 -
26/04:30am 26.6 - - - - E 9 13 5 7 1010.4 1010.3 -
26/04:00am 26.6 - - - - ENE 9 15 5 8 1010.4 1010.3 -
26/03:30am 27.9 - - - - N 2 6 1 3 1010.3 1010.2 -
26/03:00am 27.7 - - - - WNW 2 7 1 4 1010.3 1010.2 -
26/02:30am 27.7 - - - - W 4 6 2 3 1010.5 1010.4 -
26/02:00am 27.7 - - - - W 4 9 2 5 1010.6 1010.5 -
26/01:30am 27.9 - - - - W 6 11 3 6 1010.9 1010.8 -
26/01:00am 28.0 - - - - W 6 11 3 6 1011.2 1011.1 -
26/12:30am 28.2 - - - - WSW 9 13 5 7 1011.3 1011.2 -
26/12:00am 28.5 - - - - WNW 4 7 2 4 1011.2 1011.1 -
 
Date/Time
CST
Tmp

°C
App
Tmp
°C
Dew
Point
°C
Rel
Hum
%
Delta-T

°C
Wind Press
QNH
hPa
Press
MSL
hPa
Rain
since
9 am
mm
Dir
 
Spd
km/h
Gust
km/h
Spd
kts
Gust
kts
25/11:30pm 28.5 - - - - WNW 2 7 1 4 1011.3 1011.2 -
25/11:00pm 28.7 - - - - WNW 4 7 2 4 1011.4 1011.3 -
25/10:30pm 28.5 - - - - W 7 15 4 8 1011.6 1011.5 -
25/10:00pm 29.2 - - - - W 2 6 1 3 1011.5 1011.4 -
25/09:30pm 29.3 - - - - NE 2 6 1 3 1011.1 1011.0 -
25/09:00pm 29.1 - - - - NE 4 9 2 5 1010.8 1010.7 -
25/08:30pm 29.2 - - - - NE 6 13 3 7 1010.5 1010.4 -
25/08:00pm 29.3 - - - - ENE 6 13 3 7 1010.1 1010.0 -
25/07:30pm 29.8 - - - - ENE 7 15 4 8 1009.7 1009.6 -
25/07:00pm 29.8 - - - - ENE 7 15 4 8 1009.2 1009.1 -
25/06:30pm 30.6 - - - - NNE 6 17 3 9 1008.8 1008.7 -
25/06:00pm 30.8 - - - - N 9 19 5 10 1008.6 1008.5 -
25/05:30pm 31.4 - - - - NNE 6 13 3 7 1008.2 1008.1 -
25/05:00pm 31.2 - - - - NNW 7 17 4 9 1008.0 1007.9 -
25/04:30pm 32.1 - - - - NW 6 19 3 10 1007.7 1007.6 -
25/04:00pm 31.4 - - - - W 7 22 4 12 1007.8 1007.7 -
25/03:30pm 31.0 - - - - NW 9 19 5 10 1007.8 1007.7 -
25/03:00pm 31.0 - - - - WNW 9 20 5 11 1008.0 1007.9 -
25/02:30pm 30.7 - - - - W 7 20 4 11 1008.3 1008.2 -
25/02:00pm 32.0 - - - - E 6 11 3 6 1008.6 1008.5 -
25/01:30pm 31.4 - - - - SE 11 15 6 8 1008.9 1008.8 -
25/01:00pm 30.8 - - - - SE 11 13 6 7 1009.1 1009.0 -
25/12:30pm 30.5 - - - - ESE 13 17 7 9 1009.5 1009.4 -
25/12:00pm 30.4 - - - - ESE 9 15 5 8 1009.7 1009.6 -
25/11:30am 29.8 - - - - ESE 11 15 6 8 1010.1 1010.0 -
25/11:00am 29.1 - - - - SE 9 13 5 7 1010.6 1010.5 -
25/10:30am 28.4 - - - - ESE 15 19 8 10 1010.8 1010.7 -
25/10:00am 28.4 - - - - E 19 22 10 12 1010.7 1010.6 -
25/09:30am 27.3 - - - - ESE 17 20 9 11 1010.6 1010.5 -
25/09:00am 26.9 - - - - ESE 17 19 9 10 1010.5 1010.4 -
25/08:30am 27.5 - - - - E 11 15 6 8 1010.3 1010.2 -
25/08:00am 27.1 - - - - E 9 13 5 7 1009.9 1009.8 -
25/07:30am 27.1 - - - - ENE 7 13 4 7 1009.7 1009.6 -
25/07:00am 27.0 - - - - E 9 13 5 7 1009.3 1009.2 -
25/06:30am 26.9 - - - - ENE 4 7 2 4 1009.1 1009.0 -
25/06:00am 26.6 - - - - ENE 6 13 3 7 1008.8 1008.7 -
25/05:30am 26.5 - - - - ENE 6 11 3 6 1008.8 1008.7 -
25/05:00am 26.8 - - - - NE 7 13 4 7 1008.8 1008.7 -
25/04:30am 27.3 - - - - ENE 7 11 4 6 1008.9 1008.8 -
25/04:00am 27.6 - - - - S 6 7 3 4 1009.0 1008.9 -
25/03:30am 27.7 - - - - WSW 4 13 2 7 1009.0 1008.9 -
25/03:00am 28.4 - - - - SW 11 15 6 8 1009.0 1008.9 -
25/02:30am 28.6 - - - - WSW 13 17 7 9 1009.0 1008.9 -
25/02:00am 28.9 - - - - WSW 13 17 7 9 1009.0 1008.9 -
25/01:30am 29.1 - - - - WSW 11 15 6 8 1009.3 1009.2 -
25/01:00am 29.2 - - - - WSW 9 13 5 7 1009.6 1009.5 -
25/12:30am 29.4 - - - - WSW 11 13 6 7 1009.9 1009.8 -
25/12:00am 29.5 - - - - WSW 7 9 4 5 1010.1 1010.0 -
 
Date/Time
CST
Tmp

°C
App
Tmp
°C
Dew
Point
°C
Rel
Hum
%
Delta-T

°C
Wind Press
QNH
hPa
Press
MSL
hPa
Rain
since
9 am
mm
Dir
 
Spd
km/h
Gust
km/h
Spd
kts
Gust
kts
24/11:30pm 29.4 - - - - WNW 4 6 2 3 1010.3 1010.2 -
24/11:00pm 29.6 - - - - W 7 9 4 5 1010.5 1010.4 -
24/10:30pm 29.3 - - - - WSW 9 13 5 7 1010.6 1010.5 -
24/10:00pm 29.2 - - - - WSW 9 11 5 6 1010.7 1010.6 -
24/09:30pm 29.3 - - - - W 9 13 5 7 1010.7 1010.6 -
24/09:00pm 29.4 - - - - W 6 7 3 4 1010.4 1010.3 -
24/08:30pm 29.4 - - - - W 6 7 3 4 1009.9 1009.8 -
24/08:00pm 29.6 - - - - NNW 9 13 5 7 1009.5 1009.4 -
24/07:30pm 29.9 - - - - NNW 7 13 4 7 1008.9 1008.8 -
24/07:00pm 30.0 - - - - NNW 6 11 3 6 1008.5 1008.4 -
24/06:30pm 29.8 - - - - NNW 9 19 5 10 1008.1 1008.0 -
24/06:00pm 29.9 - - - - NW 7 19 4 10 1007.9 1007.8 -
24/05:30pm 30.4 - - - - NW 11 19 6 10 1007.5 1007.4 -
24/05:00pm 30.3 - - - - WNW 13 20 7 11 1007.2 1007.1 -
24/04:30pm 31.4 - - - - NW 9 20 5 11 1007.0 1006.9 -
24/04:00pm 31.9 - - - - WNW 7 17 4 9 1007.2 1007.1 -
24/03:30pm 32.0 - - - - NW 6 17 3 9 1007.2 1007.1 -
24/03:00pm 31.6 - - - - WNW 11 19 6 10 1007.3 1007.2 -
24/02:30pm 31.3 - - - - W 7 11 4 6 1007.6 1007.5 -
24/02:00pm 31.5 - - - - SW 7 11 4 6 1007.8 1007.7 -
24/01:30pm 31.1 - - - - SW 7 15 4 8 1008.1 1008.0 -
24/01:00pm 30.6 - - - - SW 7 11 4 6 1008.5 1008.4 -
24/12:30pm 30.4 - - - - SW 6 9 3 5 1009.0 1008.9 -
24/12:00pm 29.9 - - - - SW 6 7 3 4 1009.5 1009.4 -
24/11:30am 30.1 - - - - SW 2 6 1 3 1010.0 1009.9 -
24/11:00am 29.8 - - - - W 4 7 2 4 1010.3 1010.2 -
24/10:30am 28.9 - - - - S 9 13 5 7 1010.5 1010.4 -
24/10:00am 28.6 - - - - S 6 9 3 5 1010.7 1010.6 -
24/09:30am 28.4 - - - - SSE 7 11 4 6 1010.7 1010.6 -
24/09:00am 28.0 - - - - SSW 6 11 3 6 1010.5 1010.4 -
24/08:30am 27.8 - - - - SSW 7 15 4 8 1010.4 1010.3 -
24/08:00am 27.8 - - - - S 6 9 3 5 1010.2 1010.1 -
24/07:30am 27.5 - - - - SE 4 7 2 4 1010.1 1010.0 -
24/07:00am 27.3 - - - - SSW 4 7 2 4 1010.0 1009.9 -
24/06:30am 27.4 - - - - S 7 11 4 6 1009.5 1009.4 -
24/06:00am 27.4 - - - - SSW 6 13 3 7 1009.4 1009.3 -
24/05:30am 27.4 - - - - SW 4 7 2 4 1009.4 1009.3 -
24/05:00am 27.6 - - - - SSW 4 9 2 5 1009.2 1009.1 -
24/04:30am 27.6 - - - - SW 4 9 2 5 1009.2 1009.1 -
24/04:00am 27.7 - - - - SW 4 11 2 6 1009.1 1009.0 -
24/03:30am 28.1 - - - - SW 4 9 2 5 1009.0 1008.9 -
24/03:00am 28.2 - - - - SE 4 7 2 4 1009.0 1008.9 -
24/02:30am 28.4 - - - - SE 4 6 2 3 1009.2 1009.1 -
24/02:00am 28.5 - - - - SE 2 4 1 2 1009.3 1009.2 -
24/01:30am 29.1 - - - - NE 2 2 1 1 1009.5 1009.4 -
24/01:00am 28.6 - - - - NE 4 6 2 3 1009.7 1009.6 -
24/12:30am 28.9 - - - - NE 2 6 1 3 1009.8 1009.7 -
24/12:00am 29.1 - - - - NE 2 4 1 2 1010.0 1009.9 -
 
Date/Time
CST
Tmp

°C
App
Tmp
°C
Dew
Point
°C
Rel
Hum
%
Delta-T

°C
Wind Press
QNH
hPa
Press
MSL
hPa
Rain
since
9 am
mm
Dir
 
Spd
km/h
Gust
km/h
Spd
kts
Gust
kts
23/11:30pm 29.6 - - - - NE 2 4 1 2 1010.1 1010.0 -
23/11:00pm 29.3 - - - - SSE 6 7 3 4 1010.3 1010.2 -
23/10:30pm 29.4 - - - - SSE 7 13 4 7 1010.5 1010.4 -
23/10:00pm 29.2 - - - - E 7 11 4 6 1010.5 1010.4 -
23/09:30pm 29.4 - - - - NE 7 17 4 9 1010.2 1010.1 -
23/09:00pm 29.5 - - - - NE 9 19 5 10 1010.1 1010.0 -
23/08:30pm 29.4 - - - - NE 9 17 5 9 1009.6 1009.5 -
23/08:00pm 29.4 - - - - NE 9 19 5 10 1009.2 1009.1 -
23/07:30pm 29.5 - - - - NE 9 20 5 11 1008.8 1008.7 -

Latest Capital City Observations: Canberra | Sydney | Melbourne | Brisbane | Adelaide | Perth | Hobart | Darwin

Other Formats:

Comma delimited format used in spreadsheet applications
http://www.bom.gov.au/fwo/IDD60901/IDD60901.95122.axf

JavaScript Object Notation format (JSON) in row-major order
http://www.bom.gov.au/fwo/IDD60901/IDD60901.95122.json